Time;durP1;ratioP1;P1;durP2;ratioP2;P2;SDS_P1;SDS_P2;PMS_P1;PMS_P2;Temp;Humidity;BMP_temperature;BMP_pressure;BME280_temperature;BME280_humidity;BME280_pressure;Samples;Min_cycle;Max_cycle;Signal;HPM_P1;HPM_P2
2021/01/24 00:02:09;;;;;;;8.10;7.30;;;5.30;66.70;;;;;;5010895;28;20507;-74
2021/01/24 00:04:34;;;;;;;7.95;6.70;;;5.30;67.80;;;;;;5010189;28;20462;-73
2021/01/24 00:07:00;;;;;;;7.50;6.80;;;5.30;67.50;;;;;;5011129;28;20450;-73
2021/01/24 00:09:25;;;;;;;7.60;6.40;;;5.30;67.60;;;;;;5008575;28;20408;-74
2021/01/24 00:11:51;;;;;;;8.10;6.43;;;5.40;64.70;;;;;;5010747;28;20404;-73
2021/01/24 00:14:16;;;;;;;8.05;6.50;;;5.30;65.50;;;;;;5010201;28;20416;-75
2021/01/24 00:16:42;;;;;;;8.18;6.63;;;5.30;66.90;;;;;;5010062;28;20401;-76
2021/01/24 00:19:07;;;;;;;9.47;7.93;;;5.40;64.60;;;;;;5009700;28;20492;-74
2021/01/24 00:21:33;;;;;;;7.90;7.10;;;5.30;65.10;;;;;;5009679;28;20431;-72
2021/01/24 00:23:58;;;;;;;9.27;7.07;;;5.10;69.10;;;;;;5010280;28;20419;-75
2021/01/24 00:26:24;;;;;;;10.63;7.60;;;5.10;69.60;;;;;;5010168;28;20403;-73
2021/01/24 00:28:49;;;;;;;9.47;7.50;;;5.00;72.40;;;;;;5009079;28;20409;-73
2021/01/24 00:31:15;;;;;;;9.10;7.40;;;5.00;73.30;;;;;;5010959;28;20385;-74
2021/01/24 00:33:40;;;;;;;7.20;6.50;;;5.00;72.90;;;;;;5010583;28;20418;-75
2021/01/24 00:36:06;;;;;;;7.07;6.20;;;5.20;70.60;;;;;;5009357;28;20413;-73
2021/01/24 00:38:32;;;;;;;8.38;7.00;;;5.30;65.90;;;;;;4993608;28;20386;-73
2021/01/24 00:41:01;;;;;;;9.70;6.60;;;5.20;67.20;;;;;;5009384;28;20436;-74
2021/01/24 00:43:27;;;;;;;6.90;6.20;;;5.30;67.60;;;;;;5011053;28;20393;-75
2021/01/24 00:45:53;;;;;;;7.50;5.85;;;5.40;66.20;;;;;;5010628;28;20890;-73
2021/01/24 00:48:18;;;;;;;8.03;6.30;;;5.40;64.90;;;;;;5009174;28;20416;-74
2021/01/24 00:50:44;;;;;;;8.80;6.80;;;5.50;63.60;;;;;;5010452;28;20405;-73
2021/01/24 00:53:09;;;;;;;8.67;6.53;;;5.50;64.00;;;;;;5010738;28;20412;-74
2021/01/24 00:55:35;;;;;;;7.03;6.33;;;5.60;63.40;;;;;;5010509;28;20408;-73
2021/01/24 00:58:01;;;;;;;7.63;6.50;;;5.40;62.50;;;;;;5008872;28;20509;-74
2021/01/24 01:00:26;;;;;;;6.80;6.10;;;5.40;63.50;;;;;;5010600;28;20957;-73
2021/01/24 01:02:52;;;;;;;6.43;5.80;;;5.50;60.80;;;;;;5010887;28;20408;-74
2021/01/24 01:05:17;;;;;;;6.17;5.57;;;5.40;61.50;;;;;;5010391;28;20466;-76
2021/01/24 01:07:43;;;;;;;8.00;6.37;;;5.30;61.10;;;;;;5000773;28;20946;-76
2021/01/24 01:10:09;;;;;;;8.37;5.90;;;5.20;64.70;;;;;;4991055;28;20413;-75
2021/01/24 01:12:34;;;;;;;6.03;5.43;;;5.20;65.40;;;;;;5004147;28;20392;-77
2021/01/24 01:15:00;;;;;;;7.53;5.70;;;5.10;67.30;;;;;;5011246;28;20905;-75
2021/01/24 01:17:25;;;;;;;5.10;4.60;;;5.10;67.70;;;;;;5011086;28;20396;-74
2021/01/24 01:19:51;;;;;;;4.93;4.40;;;5.30;62.20;;;;;;5001956;28;20401;-76
2021/01/24 01:22:16;;;;;;;6.37;5.23;;;5.20;60.70;;;;;;5000491;28;20508;-74
2021/01/24 01:24:42;;;;;;;6.13;5.30;;;5.10;64.50;;;;;;5010830;28;20435;-75
2021/01/24 01:27:07;;;;;;;4.53;4.23;;;5.00;66.20;;;;;;5010009;28;20404;-74
2021/01/24 01:29:33;;;;;;;4.40;3.93;;;5.00;63.20;;;;;;5009723;28;20399;-74
2021/01/24 01:31:58;;;;;;;3.30;3.10;;;5.00;61.60;;;;;;5010112;28;20403;-75
2021/01/24 01:34:24;;;;;;;2.50;2.30;;;4.80;62.70;;;;;;5010467;28;20423;-75
2021/01/24 01:36:49;;;;;;;2.80;2.60;;;4.50;65.70;;;;;;5010020;28;20401;-74
2021/01/24 01:39:15;;;;;;;2.80;2.60;;;4.30;67.60;;;;;;5010043;28;20928;-75
2021/01/24 01:41:41;;;;;;;3.17;2.20;;;4.00;69.30;;;;;;5009674;28;20408;-74
2021/01/24 01:44:06;;;;;;;2.50;2.30;;;3.70;70.40;;;;;;5010200;28;20738;-75
2021/01/24 01:46:32;;;;;;;2.90;2.70;;;3.60;74.10;;;;;;5012029;28;20411;-76
2021/01/24 01:48:58;;;;;;;3.03;2.80;;;3.50;76.70;;;;;;5014184;28;20419;-77
2021/01/24 01:51:24;;;;;;;2.22;2.13;;;3.60;76.80;;;;;;4997861;28;20390;-75
2021/01/24 01:53:52;;;;;;;1.90;1.80;;;3.50;75.70;;;;;;5013804;28;20424;-75
2021/01/24 01:56:18;;;;;;;2.20;2.10;;;3.10;76.50;;;;;;5019988;28;20708;-76
2021/01/24 01:58:43;;;;;;;3.20;2.40;;;2.80;78.90;;;;;;5019461;28;20384;-77
2021/01/24 02:01:33;;;;;;;2.70;2.50;;;2.70;82.00;;;;;;5001926;28;20394;-76
2021/01/24 02:04:19;;;;;;;4.10;3.70;;;2.60;83.30;;;;;;5009799;28;20906;-73
2021/01/24 02:06:51;;;;;;;5.88;5.28;;;2.50;82.70;;;;;;4998601;28;20397;-74
2021/01/24 02:09:23;;;;;;;8.40;6.72;;;2.50;83.50;;;;;;5013037;28;20750;-74
2021/01/24 02:12:01;;;;;;;9.43;7.63;;;2.50;84.20;;;;;;5018485;28;20403;-75
2021/01/24 02:14:39;;;;;;;9.15;8.10;;;2.40;84.80;;;;;;5018504;28;20392;-74
2021/01/24 02:17:08;;;;;;;9.88;8.45;;;2.40;84.90;;;;;;5016691;28;20506;-74
2021/01/24 02:19:58;;;;;;;10.98;8.27;;;2.30;84.40;;;;;;5014361;28;20381;-74
2021/01/24 02:22:27;;;;;;;17.23;10.88;;;2.20;84.90;;;;;;5012308;28;20413;-74
2021/01/24 02:24:57;;;;;;;18.30;12.07;;;2.10;86.40;;;;;;5012041;28;20921;-74
2021/01/24 02:27:41;;;;;;;16.50;12.13;;;2.00;88.50;;;;;;5013555;28;20400;-74
2021/01/24 02:30:25;;;;;;;15.45;11.45;;;2.00;90.50;;;;;;4993453;28;20382;-74
2021/01/24 02:33:04;;;;;;;16.67;11.68;;;2.00;90.60;;;;;;5011763;28;20499;-74
2021/01/24 02:35:33;;;;;;;16.33;11.85;;;2.00;90.00;;;;;;5007105;28;20397;-75
2021/01/24 02:38:02;;;;;;;16.98;11.73;;;1.90;90.70;;;;;;5011404;28;20408;-74
2021/01/24 02:40:29;;;;;;;20.23;13.25;;;1.90;92.00;;;;;;5012116;28;20428;-74
2021/01/24 02:42:55;;;;;;;19.95;11.85;;;1.80;92.50;;;;;;5012913;28;20455;-73
2021/01/24 02:45:22;;;;;;;19.67;13.93;;;1.80;93.50;;;;;;5004500;28;20395;-74
2021/01/24 02:47:48;;;;;;;25.90;16.00;;;1.70;93.80;;;;;;5000956;28;20412;-77
2021/01/24 02:50:14;;;;;;;26.13;15.15;;;1.60;95.20;;;;;;5012354;28;20400;-77
2021/01/24 02:52:40;;;;;;;21.08;12.98;;;1.50;95.40;;;;;;5013242;28;20389;-75
2021/01/24 02:55:07;;;;;;;24.60;13.53;;;1.50;97.50;;;;;;5012476;28;20484;-77
2021/01/24 02:57:33;;;;;;;24.20;14.35;;;1.50;98.30;;;;;;5013318;28;20392;-75
2021/01/24 02:59:59;;;;;;;21.30;13.70;;;1.50;98.50;;;;;;5010489;28;20476;-76
2021/01/24 03:02:24;;;;;;;20.48;13.07;;;1.50;99.20;;;;;;5012042;28;20949;-75
2021/01/24 03:04:50;;;;;;;13.97;9.30;;;1.40;99.30;;;;;;5010338;28;20401;-75
2021/01/24 03:07:16;;;;;;;13.57;8.18;;;1.40;99.60;;;;;;4993222;28;20441;-74
2021/01/24 03:09:41;;;;;;;10.15;6.65;;;1.30;99.90;;;;;;4993245;28;20466;-75
2021/01/24 03:12:09;;;;;;;8.17;5.90;;;1.30;99.90;;;;;;4993020;28;20748;-77
2021/01/24 03:14:36;;;;;;;5.33;4.23;;;1.20;99.90;;;;;;4993565;28;20482;-77
2021/01/24 03:17:03;;;;;;;8.15;5.47;;;1.20;99.90;;;;;;5012227;28;20658;-76
2021/01/24 03:19:30;;;;;;;12.20;7.47;;;1.20;99.90;;;;;;5012014;28;20924;-76
2021/01/24 03:21:58;;;;;;;9.95;7.13;;;1.20;99.90;;;;;;5012236;28;20810;-76
2021/01/24 03:24:25;;;;;;;13.00;8.65;;;1.30;99.90;;;;;;5011723;28;20404;-76
2021/01/24 03:26:51;;;;;;;12.80;8.95;;;1.40;99.90;;;;;;4993896;28;20542;-76
2021/01/24 03:29:18;;;;;;;10.57;7.40;;;1.50;99.90;;;;;;5006599;28;20392;-74
2021/01/24 03:31:45;;;;;;;15.40;10.88;;;1.40;99.90;;;;;;5012756;28;20400;-77
2021/01/24 03:34:23;;;;;;;13.88;8.02;;;1.50;99.90;;;;;;5012548;28;20958;-75
2021/01/24 03:36:50;;;;;;;14.93;8.73;;;1.40;99.90;;;;;;5011908;28;20866;-77
2021/01/24 03:39:16;;;;;;;9.75;6.95;;;1.40;99.90;;;;;;5011106;28;20466;-76
2021/01/24 03:41:42;;;;;;;12.47;8.37;;;1.30;99.90;;;;;;5012306;28;20978;-76
2021/01/24 03:44:08;;;;;;;11.38;7.28;;;1.30;99.90;;;;;;5012846;28;20384;-75
2021/01/24 03:46:35;;;;;;;18.85;12.25;;;1.20;99.90;;;;;;5011641;28;20750;-75
2021/01/24 03:49:01;;;;;;;17.70;11.30;;;1.20;99.90;;;;;;5011759;28;20484;-75
2021/01/24 03:51:27;;;;;;;17.92;10.30;;;1.10;99.90;;;;;;5011655;28;20890;-75
2021/01/24 03:53:52;;;;;;;24.58;14.63;;;1.10;99.90;;;;;;5010709;28;20413;-75
2021/01/24 03:56:18;;;;;;;12.25;8.55;;;1.10;99.90;;;;;;5011755;28;20387;-74
2021/01/24 03:58:44;;;;;;;18.90;9.50;;;1.20;99.90;;;;;;5011466;28;20416;-74
2021/01/24 04:01:09;;;;;;;13.30;8.32;;;1.10;99.90;;;;;;5011335;28;20381;-76
2021/01/24 04:03:35;;;;;;;16.38;9.90;;;1.10;99.90;;;;;;5008098;28;20393;-74
2021/01/24 04:06:00;;;;;;;13.83;8.53;;;1.10;99.90;;;;;;5010477;28;20392;-73
2021/01/24 04:08:26;;;;;;;6.20;4.83;;;1.00;99.90;;;;;;5011446;28;20787;-75
2021/01/24 04:10:51;;;;;;;9.98;6.47;;;1.10;99.90;;;;;;5010730;28;20442;-73
2021/01/24 04:13:17;;;;;;;10.38;6.47;;;1.10;99.90;;;;;;5009799;28;21095;-74
2021/01/24 04:15:42;;;;;;;10.27;6.63;;;1.10;99.90;;;;;;4996973;28;20383;-76
2021/01/24 04:18:08;;;;;;;14.30;9.17;;;1.10;99.90;;;;;;4997772;28;20391;-74
2021/01/24 04:20:34;;;;;;;8.60;5.30;;;1.10;99.90;;;;;;5009996;28;20450;-77
2021/01/24 04:22:59;;;;;;;11.83;6.30;;;1.00;99.90;;;;;;5008241;28;20770;-75
2021/01/24 04:25:25;;;;;;;11.60;6.87;;;1.00;99.90;;;;;;4999406;28;20796;-75
2021/01/24 04:27:50;;;;;;;7.68;5.07;;;1.00;99.90;;;;;;4999492;28;20394;-74
2021/01/24 04:30:16;;;;;;;12.15;7.25;;;1.00;99.90;;;;;;5015656;28;20407;-75
2021/01/24 04:32:42;;;;;;;7.03;5.07;;;1.00;99.90;;;;;;5008185;28;20497;-75
2021/01/24 04:35:08;;;;;;;12.02;5.85;;;1.00;99.90;;;;;;5011971;28;20393;-74
2021/01/24 04:37:34;;;;;;;14.85;5.30;;;1.00;99.90;;;;;;5013129;28;20397;-75
2021/01/24 04:40:00;;;;;;;7.70;4.10;;;1.00;99.90;;;;;;5013831;28;20816;-74
2021/01/24 04:42:28;;;;;;;4.03;3.45;;;1.00;99.90;;;;;;5010297;28;20483;-74
2021/01/24 04:44:55;;;;;;;6.63;3.40;;;1.00;99.90;;;;;;4992342;28;20492;-74
2021/01/24 04:47:22;;;;;;;4.20;3.50;;;0.90;99.90;;;;;;4995801;28;20412;-75
2021/01/24 04:49:49;;;;;;;5.80;4.03;;;1.00;99.90;;;;;;5009892;28;20467;-73
2021/01/24 04:52:15;;;;;;;8.55;4.50;;;1.00;99.90;;;;;;5009801;28;20423;-75
2021/01/24 04:54:42;;;;;;;4.90;3.77;;;1.00;99.90;;;;;;5009625;28;21001;-74
2021/01/24 04:57:09;;;;;;;3.92;2.90;;;1.00;99.90;;;;;;5000539;28;20501;-74
2021/01/24 04:59:35;;;;;;;7.05;4.35;;;1.00;99.90;;;;;;5016944;28;20601;-76
2021/01/24 05:02:01;;;;;;;5.77;3.93;;;1.00;99.90;;;;;;5019887;28;20842;-77
2021/01/24 05:04:28;;;;;;;6.20;3.90;;;1.10;99.90;;;;;;5013371;28;20405;-75
2021/01/24 05:06:54;;;;;;;6.50;3.55;;;1.10;99.90;;;;;;5017151;28;20401;-76
2021/01/24 05:09:22;;;;;;;3.92;3.60;;;1.10;99.90;;;;;;5018921;28;20793;-75
2021/01/24 05:11:50;;;;;;;9.35;3.92;;;1.00;99.90;;;;;;5006371;28;20414;-77
2021/01/24 05:14:20;;;;;;;5.63;3.30;;;1.10;99.90;;;;;;4995175;28;20389;-76
2021/01/24 05:16:51;;;;;;;5.90;3.60;;;1.10;99.90;;;;;;5018335;28;20412;-77
2021/01/24 05:19:16;;;;;;;5.32;3.40;;;1.10;99.90;;;;;;5017809;28;20441;-77
2021/01/24 05:21:42;;;;;;;6.25;4.40;;;1.10;99.90;;;;;;5006717;28;20434;-76
2021/01/24 05:24:13;;;;;;;6.00;4.53;;;1.10;99.90;;;;;;5014323;28;20874;-75
2021/01/24 05:26:49;;;;;;;6.40;3.63;;;1.10;99.90;;;;;;5015553;28;20388;-75
2021/01/24 05:29:25;;;;;;;3.67;2.80;;;1.10;99.90;;;;;;5012687;28;20397;-73
2021/01/24 05:31:55;;;;;;;6.10;3.78;;;1.10;99.90;;;;;;5014620;28;20447;-75
2021/01/24 05:34:28;;;;;;;4.18;2.58;;;1.10;99.90;;;;;;5012831;28;20392;-76
2021/01/24 05:36:54;;;;;;;4.70;2.60;;;1.00;99.90;;;;;;5013148;28;20758;-75
2021/01/24 05:39:21;;;;;;;2.17;1.98;;;1.10;99.90;;;;;;5010833;28;20405;-73
2021/01/24 05:41:48;;;;;;;3.20;2.42;;;1.10;99.90;;;;;;5014009;28;20755;-74
2021/01/24 05:44:15;;;;;;;4.97;3.20;;;1.10;99.90;;;;;;5013951;28;20478;-74
2021/01/24 05:46:41;;;;;;;6.75;2.90;;;1.10;99.90;;;;;;5006288;28;20761;-74
2021/01/24 05:49:08;;;;;;;5.28;3.50;;;1.10;99.90;;;;;;5015404;28;20384;-74
2021/01/24 05:51:34;;;;;;;0.90;0.47;;;1.10;99.90;;;;;;5016277;28;20408;-73
2021/01/24 05:54:00;;;;;;;0.50;0.40;;;1.10;99.90;;;;;;5015469;28;20407;-73
2021/01/24 05:56:25;;;;;;;1.00;0.70;;;1.10;99.90;;;;;;5015134;28;20395;-74
2021/01/24 05:58:56;;;;;;;1.65;0.77;;;1.20;99.90;;;;;;4997154;28;20402;-74
2021/01/24 06:01:25;;;;;;;0.80;0.60;;;1.20;99.90;;;;;;4994764;28;20812;-73
2021/01/24 06:03:54;;;;;;;0.60;0.60;;;1.20;99.90;;;;;;4994848;28;20792;-73
2021/01/24 06:06:19;;;;;;;0.50;0.40;;;1.10;99.90;;;;;;5003268;28;20735;-74
2021/01/24 06:08:45;;;;;;;0.52;0.52;;;1.20;99.90;;;;;;5012045;28;20424;-73
2021/01/24 06:11:12;;;;;;;0.57;0.57;;;1.20;99.90;;;;;;5013851;28;20392;-74
2021/01/24 06:13:39;;;;;;;0.50;0.40;;;1.20;99.90;;;;;;5013889;28;20381;-74
2021/01/24 06:16:18;;;;;;;0.80;0.60;;;1.30;99.90;;;;;;5013808;28;20905;-76
2021/01/24 06:19:02;;;;;;;0.60;0.60;;;1.20;99.90;;;;;;5014519;28;20393;-74
2021/01/24 06:21:37;;;;;;;0.90;0.82;;;1.30;99.90;;;;;;5014161;28;20431;-74
2021/01/24 06:24:06;;;;;;;1.80;0.60;;;1.30;99.90;;;;;;5013105;28;20412;-74
2021/01/24 06:26:37;;;;;;;1.00;0.80;;;1.30;99.90;;;;;;5013442;28;20385;-74
2021/01/24 06:29:05;;;;;;;0.77;0.77;;;1.30;99.90;;;;;;5009096;28;20404;-73
2021/01/24 06:31:31;;;;;;;0.90;0.70;;;1.30;99.90;;;;;;5013384;28;20404;-75
2021/01/24 06:34:04;;;;;;;0.50;0.50;;;1.30;99.90;;;;;;5013156;28;20723;-75
2021/01/24 06:36:30;;;;;;;0.50;0.40;;;1.30;99.90;;;;;;5013123;28;20918;-75
2021/01/24 06:38:56;;;;;;;0.70;0.70;;;1.30;99.90;;;;;;5013267;28;20389;-76
2021/01/24 06:41:46;;;;;;;0.90;0.60;;;1.40;99.90;;;;;;5012979;28;20419;-74
2021/01/24 06:44:34;;;;;;;0.70;0.60;;;1.40;99.90;;;;;;5013277;28;20385;-76
2021/01/24 06:47:04;;;;;;;2.80;1.10;;;1.40;99.90;;;;;;5013234;28;20412;-74
2021/01/24 06:49:43;;;;;;;1.00;0.90;;;1.40;99.90;;;;;;5012840;28;20392;-75
2021/01/24 06:52:20;;;;;;;2.80;1.00;;;1.40;99.90;;;;;;4998034;28;20420;-76
2021/01/24 06:54:47;;;;;;;0.80;0.80;;;1.40;99.90;;;;;;5012784;28;20397;-77
2021/01/24 06:57:13;;;;;;;1.20;0.80;;;1.40;99.90;;;;;;5013443;28;20393;-76
2021/01/24 06:59:38;;;;;;;0.60;0.60;;;1.40;99.90;;;;;;5013220;28;20492;-74
2021/01/24 07:02:34;;;;;;;1.60;1.50;;;1.40;99.90;;;;;;5013975;28;20420;-76
2021/01/24 07:05:07;;;;;;;1.85;1.05;;;1.50;99.90;;;;;;5012608;28;20405;-77
2021/01/24 07:07:34;;;;;;;1.00;0.90;;;1.50;99.90;;;;;;5013475;28;20391;-75
2021/01/24 07:10:00;;;;;;;3.75;1.45;;;1.50;99.90;;;;;;5012856;28;20450;-76
2021/01/24 07:12:40;;;;;;;1.40;1.20;;;1.60;99.90;;;;;;5009237;28;20922;-76
2021/01/24 07:15:09;;;;;;;0.90;0.70;;;1.60;99.90;;;;;;4993295;28;20403;-76
2021/01/24 07:17:35;;;;;;;1.80;1.33;;;1.60;99.90;;;;;;4993393;28;20393;-78
2021/01/24 07:20:02;;;;;;;3.97;1.37;;;1.60;99.90;;;;;;5011554;28;20443;-76
2021/01/24 07:22:29;;;;;;;2.00;0.90;;;1.60;99.90;;;;;;5010635;28;20503;-76
2021/01/24 07:24:55;;;;;;;7.30;1.58;;;1.70;99.90;;;;;;4993725;28;20394;-76
2021/01/24 07:27:29;;;;;;;1.83;1.00;;;1.70;99.90;;;;;;5005516;28;20407;-74
2021/01/24 07:29:55;;;;;;;2.42;1.13;;;1.60;99.90;;;;;;5012674;28;20849;-74
2021/01/24 07:32:23;;;;;;;4.50;1.25;;;1.60;99.90;;;;;;5011987;28;20440;-75
2021/01/24 07:34:53;;;;;;;1.80;1.20;;;1.70;99.90;;;;;;5010581;28;20906;-75
2021/01/24 07:37:19;;;;;;;1.70;0.85;;;1.70;99.90;;;;;;5012863;28;20389;-76
2021/01/24 07:39:46;;;;;;;2.00;1.20;;;1.70;99.90;;;;;;5012611;28;20393;-74
2021/01/24 07:42:13;;;;;;;2.83;1.33;;;1.70;99.90;;;;;;5013275;28;20414;-74
2021/01/24 07:44:40;;;;;;;3.10;1.02;;;1.80;99.90;;;;;;5011955;28;20400;-74
2021/01/24 07:47:07;;;;;;;2.70;1.40;;;1.80;99.90;;;;;;5012216;28;20381;-73
2021/01/24 07:49:32;;;;;;;1.10;1.00;;;1.70;99.90;;;;;;5011712;28;20762;-74
2021/01/24 07:51:58;;;;;;;1.70;1.60;;;1.70;99.90;;;;;;5011884;28;20417;-74
2021/01/24 07:54:24;;;;;;;1.60;1.50;;;1.80;99.90;;;;;;5011681;28;20499;-74
2021/01/24 07:56:50;;;;;;;2.10;1.17;;;1.80;99.90;;;;;;5011599;28;20847;-74
2021/01/24 07:59:17;;;;;;;2.00;1.70;;;1.90;99.90;;;;;;5012257;28;20929;-75
2021/01/24 08:01:43;;;;;;;2.50;2.30;;;1.80;99.90;;;;;;5011448;28;20443;-75
2021/01/24 08:04:10;;;;;;;1.08;0.90;;;1.80;99.90;;;;;;5011388;28;20388;-76
2021/01/24 08:06:37;;;;;;;3.60;2.00;;;2.00;99.90;;;;;;5010990;28;20397;-75
2021/01/24 08:09:07;;;;;;;2.05;1.65;;;1.90;99.90;;;;;;5009187;28;20454;-76
2021/01/24 08:11:33;;;;;;;1.55;1.08;;;1.90;99.90;;;;;;5011627;28;20384;-75
2021/01/24 08:13:59;;;;;;;6.20;2.90;;;1.90;99.90;;;;;;5007416;28;20969;-74
2021/01/24 08:16:30;;;;;;;11.80;2.20;;;1.90;99.90;;;;;;4997355;28;20394;-74
2021/01/24 08:18:57;;;;;;;9.80;1.70;;;2.00;99.90;;;;;;4994781;28;20400;-76
2021/01/24 08:21:25;;;;;;;3.78;1.67;;;2.00;99.90;;;;;;5005611;28;20396;-75
2021/01/24 08:23:51;;;;;;;2.70;2.50;;;2.10;99.90;;;;;;5009306;28;20400;-74
2021/01/24 08:26:18;;;;;;;3.30;2.40;;;2.10;99.90;;;;;;4992388;28;20390;-75
2021/01/24 08:28:45;;;;;;;2.10;2.00;;;2.20;99.90;;;;;;4995609;28;20433;-78
2021/01/24 08:31:16;;;;;;;3.38;1.98;;;2.30;99.90;;;;;;4999122;28;20406;-74
2021/01/24 08:33:42;;;;;;;2.03;1.50;;;2.40;99.90;;;;;;4995787;28;20428;-71
2021/01/24 08:36:16;;;;;;;4.32;2.85;;;2.50;99.90;;;;;;5008109;28;20907;-72
2021/01/24 08:38:42;;;;;;;3.70;2.20;;;2.50;99.90;;;;;;5005230;28;20463;-72
2021/01/24 08:41:09;;;;;;;1.90;1.63;;;2.70;99.90;;;;;;5010406;28;20381;-77
2021/01/24 08:43:35;;;;;;;2.85;1.52;;;2.70;99.90;;;;;;5006952;28;20406;-76
2021/01/24 08:46:26;;;;;;;4.50;1.07;;;2.70;99.90;;;;;;5009506;28;20408;-72
2021/01/24 08:49:09;;;;;;;4.30;2.17;;;2.90;99.90;;;;;;5009381;28;20798;-75
2021/01/24 08:51:43;;;;;;;2.60;1.60;;;2.90;99.90;;;;;;5009330;28;20416;-74
2021/01/24 08:54:23;;;;;;;0.75;0.75;;;2.90;99.90;;;;;;5011201;28;20810;-73
2021/01/24 08:56:50;;;;;;;4.18;1.27;;;3.00;99.90;;;;;;5002542;28;20905;-73
2021/01/24 08:59:29;;;;;;;3.00;1.20;;;3.00;99.90;;;;;;5008797;28;20882;-74
2021/01/24 09:01:56;;;;;;;1.77;1.67;;;3.00;99.90;;;;;;5004147;28;20412;-73
2021/01/24 09:04:26;;;;;;;2.80;1.60;;;3.00;99.90;;;;;;5007613;28;20756;-74
2021/01/24 09:07:19;;;;;;;1.40;1.00;;;3.00;99.90;;;;;;5006694;28;20580;-74
2021/01/24 09:09:46;;;;;;;0.70;0.70;;;3.00;99.90;;;;;;5010511;28;20408;-72
2021/01/24 09:12:14;;;;;;;1.50;0.90;;;2.90;99.90;;;;;;5002725;28;21035;-73
2021/01/24 09:14:41;;;;;;;3.60;1.70;;;3.00;99.90;;;;;;5006850;28;20471;-73
2021/01/24 09:17:12;;;;;;;1.05;1.02;;;3.00;99.90;;;;;;4994862;28;20478;-74
2021/01/24 09:19:39;;;;;;;1.60;1.00;;;3.00;99.90;;;;;;5002222;28;20470;-74
2021/01/24 09:22:06;;;;;;;4.25;1.10;;;3.10;99.90;;;;;;5000101;28;20508;-73
2021/01/24 09:24:32;;;;;;;1.42;0.88;;;3.00;99.90;;;;;;5007482;28;20442;-73
2021/01/24 09:26:58;;;;;;;1.42;1.38;;;3.10;99.90;;;;;;5002285;28;20408;-74
2021/01/24 09:29:23;;;;;;;4.80;1.80;;;3.10;99.90;;;;;;5007268;28;20818;-74
2021/01/24 09:31:49;;;;;;;1.40;1.30;;;3.10;99.90;;;;;;5007902;28;20466;-74
2021/01/24 09:34:15;;;;;;;0.90;0.90;;;3.20;99.90;;;;;;5008458;28;20404;-74
2021/01/24 09:36:41;;;;;;;0.80;0.75;;;3.20;99.80;;;;;;5008675;28;20902;-73
2021/01/24 09:39:07;;;;;;;1.40;1.30;;;3.10;99.90;;;;;;5008621;28;20413;-73
2021/01/24 09:41:33;;;;;;;1.60;1.00;;;3.20;99.10;;;;;;5009377;28;20397;-73
2021/01/24 09:44:01;;;;;;;5.88;1.30;;;3.10;98.60;;;;;;5007301;28;20747;-73
2021/01/24 09:46:26;;;;;;;2.30;1.10;;;3.10;99.20;;;;;;5008361;28;20937;-74
2021/01/24 09:48:52;;;;;;;1.50;1.20;;;3.10;98.20;;;;;;5009211;28;20405;-73
2021/01/24 09:51:18;;;;;;;1.20;0.97;;;3.10;99.00;;;;;;5008634;28;20396;-73
2021/01/24 09:53:51;;;;;;;1.30;1.13;;;3.20;97.50;;;;;;5010884;28;20451;-72
2021/01/24 09:56:17;;;;;;;1.80;1.23;;;3.10;94.90;;;;;;5009803;28;20393;-73
2021/01/24 09:58:43;;;;;;;1.43;1.17;;;3.10;97.60;;;;;;5006801;28;20890;-73
2021/01/24 10:01:09;;;;;;;1.17;1.05;;;3.10;97.70;;;;;;5000371;28;20417;-75
2021/01/24 10:03:35;;;;;;;1.10;1.00;;;3.30;95.80;;;;;;5005025;28;20413;-72
2021/01/24 10:06:05;;;;;;;1.50;0.80;;;3.30;93.90;;;;;;5009023;28;20417;-75
2021/01/24 10:08:31;;;;;;;1.30;1.10;;;3.40;93.40;;;;;;5016295;28;20421;-79
2021/01/24 10:10:56;;;;;;;4.20;1.40;;;3.50;94.60;;;;;;5011451;28;20416;-74
2021/01/24 10:13:22;;;;;;;1.48;1.38;;;3.60;95.40;;;;;;5003250;28;20937;-73
2021/01/24 10:15:51;;;;;;;2.90;0.90;;;3.70;91.90;;;;;;5010787;28;20496;-73
2021/01/24 10:18:18;;;;;;;2.60;1.60;;;3.70;91.60;;;;;;5012890;28;20407;-74
2021/01/24 10:20:44;;;;;;;1.90;1.40;;;3.80;90.50;;;;;;5012866;28;20397;-74
2021/01/24 10:23:10;;;;;;;0.90;0.90;;;3.80;89.00;;;;;;5012542;28;20866;-73
2021/01/24 10:25:36;;;;;;;3.08;1.30;;;3.80;87.60;;;;;;5012210;28;20510;-73
2021/01/24 10:28:01;;;;;;;4.72;1.40;;;3.80;89.90;;;;;;5012432;28;20436;-75
2021/01/24 10:30:27;;;;;;;4.38;1.48;;;3.80;84.30;;;;;;5005553;28;20417;-73
2021/01/24 10:32:53;;;;;;;3.90;1.30;;;3.80;85.70;;;;;;4994301;28;20414;-73
2021/01/24 10:35:18;;;;;;;1.80;1.20;;;3.70;81.80;;;;;;5011481;28;20806;-73
2021/01/24 10:37:44;;;;;;;3.50;1.00;;;3.70;83.20;;;;;;5012435;28;20751;-74
2021/01/24 10:40:10;;;;;;;5.70;1.10;;;3.80;85.20;;;;;;5012434;28;20459;-73
2021/01/24 10:42:39;;;;;;;2.42;1.73;;;3.80;82.00;;;;;;5008136;28;20404;-72
2021/01/24 10:45:08;;;;;;;1.63;1.52;;;3.80;79.00;;;;;;5011601;28;20396;-74
2021/01/24 10:47:34;;;;;;;1.55;1.08;;;3.80;75.70;;;;;;5010674;28;20474;-74
2021/01/24 10:50:01;;;;;;;1.73;1.57;;;3.60;79.90;;;;;;5004192;28;20409;-73
2021/01/24 10:52:27;;;;;;;2.70;1.70;;;3.60;80.90;;;;;;5012174;28;20416;-75
2021/01/24 10:54:52;;;;;;;2.25;1.00;;;3.60;80.50;;;;;;5010544;28;20400;-74
2021/01/24 10:57:18;;;;;;;1.20;0.50;;;3.60;80.90;;;;;;5010340;28;20415;-74
2021/01/24 10:59:43;;;;;;;1.10;1.00;;;3.70;81.70;;;;;;5003003;28;20491;-74
2021/01/24 11:02:09;;;;;;;1.40;1.10;;;3.90;75.30;;;;;;5009435;28;20396;-73
2021/01/24 11:04:34;;;;;;;0.60;0.50;;;4.00;75.60;;;;;;5009539;28;20917;-75
2021/01/24 11:07:00;;;;;;;1.70;1.17;;;4.10;75.20;;;;;;5008044;28;20916;-72
2021/01/24 11:09:26;;;;;;;4.78;1.98;;;4.20;76.00;;;;;;5009616;28;20452;-72
2021/01/24 11:11:52;;;;;;;2.10;1.45;;;4.30;76.80;;;;;;5011108;28;20408;-72
2021/01/24 11:14:18;;;;;;;1.60;1.50;;;4.60;73.00;;;;;;5012068;28;20389;-74
2021/01/24 11:16:43;;;;;;;1.30;1.20;;;4.70;68.50;;;;;;5011743;28;20440;-75
2021/01/24 11:19:09;;;;;;;1.40;0.90;;;4.50;67.70;;;;;;5009481;28;20444;-74
2021/01/24 11:21:34;;;;;;;0.70;0.70;;;4.30;69.00;;;;;;5007601;28;20400;-74
2021/01/24 11:24:00;;;;;;;1.23;0.80;;;4.20;72.40;;;;;;5009363;28;20400;-74
2021/01/24 11:26:25;;;;;;;1.30;1.00;;;4.10;73.30;;;;;;5011442;28;20400;-74
2021/01/24 11:28:51;;;;;;;1.13;1.03;;;4.20;70.40;;;;;;5012391;28;20389;-75
2021/01/24 11:31:17;;;;;;;2.60;1.83;;;4.10;68.20;;;;;;5011767;28;20767;-75
2021/01/24 11:33:45;;;;;;;3.30;1.42;;;4.00;70.00;;;;;;5013280;28;20432;-73
2021/01/24 11:36:11;;;;;;;2.30;1.17;;;4.00;69.10;;;;;;5002007;28;20905;-76
2021/01/24 11:38:37;;;;;;;1.92;0.95;;;3.90;70.60;;;;;;5014793;28;20405;-75
2021/01/24 11:41:03;;;;;;;2.90;1.60;;;3.90;70.50;;;;;;5014655;28;20413;-77
2021/01/24 11:43:29;;;;;;;6.00;1.50;;;4.00;71.00;;;;;;5016723;28;20405;-75
2021/01/24 11:45:55;;;;;;;3.60;1.70;;;4.00;70.20;;;;;;5010994;28;20385;-73
2021/01/24 11:48:21;;;;;;;3.08;1.52;;;4.10;70.10;;;;;;5010735;28;20536;-73
2021/01/24 11:50:47;;;;;;;8.35;1.95;;;4.40;68.70;;;;;;5010273;28;20397;-75
2021/01/24 11:53:13;;;;;;;3.88;1.13;;;4.40;69.00;;;;;;5009823;28;20424;-72
2021/01/24 11:55:38;;;;;;;1.23;0.73;;;4.50;67.30;;;;;;5009757;28;20902;-75
2021/01/24 11:58:04;;;;;;;1.88;1.67;;;4.50;63.50;;;;;;5004496;28;20785;-75
2021/01/24 12:00:29;;;;;;;4.10;1.23;;;4.50;65.60;;;;;;5009523;28;20446;-74
2021/01/24 12:02:55;;;;;;;1.90;1.30;;;4.60;64.80;;;;;;5009788;28;20438;-74
2021/01/24 12:05:21;;;;;;;5.60;1.20;;;4.60;63.40;;;;;;5007626;28;20428;-73
2021/01/24 12:07:46;;;;;;;5.33;2.20;;;4.60;63.90;;;;;;5009180;28;20400;-75
2021/01/24 12:10:12;;;;;;;2.80;1.50;;;4.80;64.40;;;;;;5009925;28;20408;-78
2021/01/24 12:12:37;;;;;;;3.40;2.10;;;4.90;61.40;;;;;;5005548;28;20842;-74
2021/01/24 12:15:04;;;;;;;2.43;1.70;;;5.10;60.10;;;;;;5013984;28;20467;-74
2021/01/24 12:17:29;;;;;;;1.40;1.30;;;5.20;60.20;;;;;;5016082;28;20472;-74
2021/01/24 12:19:55;;;;;;;1.70;1.60;;;5.20;59.80;;;;;;5012650;28;20428;-75
2021/01/24 12:22:20;;;;;;;4.20;1.15;;;5.40;59.80;;;;;;5008568;28;20435;-74
2021/01/24 12:24:46;;;;;;;1.30;1.20;;;5.60;60.00;;;;;;5009136;28;20463;-76
2021/01/24 12:27:12;;;;;;;2.20;1.20;;;5.90;57.70;;;;;;5010663;28;20750;-74
2021/01/24 12:29:37;;;;;;;2.80;2.30;;;6.00;54.70;;;;;;5008549;28;20412;-74
2021/01/24 12:32:03;;;;;;;3.75;1.42;;;6.00;53.50;;;;;;5008998;28;20432;-72
2021/01/24 12:34:28;;;;;;;2.25;2.05;;;5.90;53.80;;;;;;5009940;28;20405;-76
2021/01/24 12:36:54;;;;;;;5.35;1.77;;;6.00;55.50;;;;;;5004305;28;20419;-73
2021/01/24 12:39:19;;;;;;;4.55;2.10;;;5.90;55.60;;;;;;5003337;28;20408;-73
2021/01/24 12:41:45;;;;;;;5.20;1.25;;;6.00;52.60;;;;;;5004869;28;20919;-74
2021/01/24 12:44:13;;;;;;;2.80;1.27;;;6.00;51.90;;;;;;5007533;28;20423;-73
2021/01/24 12:46:38;;;;;;;10.57;2.33;;;5.90;52.90;;;;;;4998927;28;20510;-72
2021/01/24 12:49:04;;;;;;;1.47;1.37;;;5.80;52.80;;;;;;5010844;28;20468;-77
2021/01/24 12:51:29;;;;;;;6.57;2.67;;;5.90;55.40;;;;;;5009369;28;20898;-76
2021/01/24 12:53:55;;;;;;;3.20;1.80;;;5.80;57.70;;;;;;5010811;28;20717;-74
2021/01/24 12:56:21;;;;;;;3.83;2.83;;;5.70;56.20;;;;;;5010540;28;20380;-74
2021/01/24 12:58:47;;;;;;;4.00;2.50;;;5.80;57.60;;;;;;5008676;28;20400;-75